sensor_id;sensor_type;location;lat;lon;timestamp;P1;durP1;ratioP1;P2;durP2;ratioP2
9124;SDS011;4597;48.730;9.114;2022-09-30T00:00:51;15.90;;;12.73;;
9124;SDS011;4597;48.730;9.114;2022-09-30T00:03:17;14.27;;;11.70;;
9124;SDS011;4597;48.730;9.114;2022-09-30T00:05:42;15.90;;;12.17;;
9124;SDS011;4597;48.730;9.114;2022-09-30T00:08:08;13.50;;;11.50;;
9124;SDS011;4597;48.730;9.114;2022-09-30T00:10:33;17.57;;;12.43;;
9124;SDS011;4597;48.730;9.114;2022-09-30T00:12:59;15.43;;;11.70;;
9124;SDS011;4597;48.730;9.114;2022-09-30T00:15:24;14.80;;;12.27;;
9124;SDS011;4597;48.730;9.114;2022-09-30T00:17:50;19.17;;;11.80;;
9124;SDS011;4597;48.730;9.114;2022-09-30T00:20:15;16.27;;;12.20;;
9124;SDS011;4597;48.730;9.114;2022-09-30T00:22:43;16.37;;;12.13;;
9124;SDS011;4597;48.730;9.114;2022-09-30T00:25:09;16.03;;;11.87;;
9124;SDS011;4597;48.730;9.114;2022-09-30T00:27:34;18.13;;;12.17;;
9124;SDS011;4597;48.730;9.114;2022-09-30T00:30:00;16.57;;;11.93;;
9124;SDS011;4597;48.730;9.114;2022-09-30T00:32:25;16.23;;;11.33;;
9124;SDS011;4597;48.730;9.114;2022-09-30T00:34:51;14.97;;;11.77;;
9124;SDS011;4597;48.730;9.114;2022-09-30T00:37:16;21.40;;;12.70;;
9124;SDS011;4597;48.730;9.114;2022-09-30T00:39:42;15.53;;;12.43;;
9124;SDS011;4597;48.730;9.114;2022-09-30T00:42:11;15.00;;;11.97;;
9124;SDS011;4597;48.730;9.114;2022-09-30T00:47:17;14.20;;;11.37;;
9124;SDS011;4597;48.730;9.114;2022-09-30T00:49:50;16.67;;;11.70;;
9124;SDS011;4597;48.730;9.114;2022-09-30T00:52:16;17.00;;;11.37;;
9124;SDS011;4597;48.730;9.114;2022-09-30T00:54:42;19.60;;;12.77;;
9124;SDS011;4597;48.730;9.114;2022-09-30T00:57:08;17.80;;;13.00;;
9124;SDS011;4597;48.730;9.114;2022-09-30T00:59:41;13.90;;;10.97;;
9124;SDS011;4597;48.730;9.114;2022-09-30T01:02:11;14.63;;;11.17;;
9124;SDS011;4597;48.730;9.114;2022-09-30T01:04:38;13.00;;;10.13;;
9124;SDS011;4597;48.730;9.114;2022-09-30T01:07:07;16.67;;;10.90;;
9124;SDS011;4597;48.730;9.114;2022-09-30T01:09:34;13.27;;;10.47;;
9124;SDS011;4597;48.730;9.114;2022-09-30T01:12:08;15.30;;;10.57;;
9124;SDS011;4597;48.730;9.114;2022-09-30T01:14:36;14.20;;;10.00;;
9124;SDS011;4597;48.730;9.114;2022-09-30T01:25:36;15.17;;;11.73;;
9124;SDS011;4597;48.730;9.114;2022-09-30T01:36:43;13.23;;;9.27;;
9124;SDS011;4597;48.730;9.114;2022-09-30T01:45:00;11.90;;;9.20;;
9124;SDS011;4597;48.730;9.114;2022-09-30T01:47:58;12.93;;;9.90;;
9124;SDS011;4597;48.730;9.114;2022-09-30T01:50:31;10.13;;;8.83;;
9124;SDS011;4597;48.730;9.114;2022-09-30T01:55:59;10.63;;;9.10;;
9124;SDS011;4597;48.730;9.114;2022-09-30T01:58:44;11.30;;;9.13;;
9124;SDS011;4597;48.730;9.114;2022-09-30T02:01:24;11.40;;;8.27;;
9124;SDS011;4597;48.730;9.114;2022-09-30T02:03:55;9.90;;;7.47;;
9124;SDS011;4597;48.730;9.114;2022-09-30T02:06:27;10.57;;;8.50;;
9124;SDS011;4597;48.730;9.114;2022-09-30T02:09:11;12.77;;;8.60;;
9124;SDS011;4597;48.730;9.114;2022-09-30T02:11:44;10.17;;;8.67;;
9124;SDS011;4597;48.730;9.114;2022-09-30T02:16:55;16.27;;;9.67;;
9124;SDS011;4597;48.730;9.114;2022-09-30T02:19:32;10.97;;;9.33;;
9124;SDS011;4597;48.730;9.114;2022-09-30T02:22:05;10.27;;;8.57;;
9124;SDS011;4597;48.730;9.114;2022-09-30T02:24:35;11.50;;;9.00;;
9124;SDS011;4597;48.730;9.114;2022-09-30T02:27:02;10.97;;;8.07;;
9124;SDS011;4597;48.730;9.114;2022-09-30T02:29:34;11.97;;;9.13;;
9124;SDS011;4597;48.730;9.114;2022-09-30T02:32:14;12.23;;;9.50;;
9124;SDS011;4597;48.730;9.114;2022-09-30T02:34:50;15.87;;;11.23;;
9124;SDS011;4597;48.730;9.114;2022-09-30T02:37:20;11.77;;;9.50;;
9124;SDS011;4597;48.730;9.114;2022-09-30T02:39:53;12.30;;;9.93;;
9124;SDS011;4597;48.730;9.114;2022-09-30T02:42:26;19.50;;;10.93;;
9124;SDS011;4597;48.730;9.114;2022-09-30T02:45:01;15.43;;;10.23;;
9124;SDS011;4597;48.730;9.114;2022-09-30T02:47:40;16.07;;;10.87;;
9124;SDS011;4597;48.730;9.114;2022-09-30T02:53:26;15.50;;;10.60;;
9124;SDS011;4597;48.730;9.114;2022-09-30T02:56:11;15.40;;;9.80;;
9124;SDS011;4597;48.730;9.114;2022-09-30T02:58:47;14.17;;;9.13;;
9124;SDS011;4597;48.730;9.114;2022-09-30T03:01:15;12.50;;;8.37;;
9124;SDS011;4597;48.730;9.114;2022-09-30T03:03:50;11.60;;;7.63;;
9124;SDS011;4597;48.730;9.114;2022-09-30T03:06:19;16.37;;;8.90;;
9124;SDS011;4597;48.730;9.114;2022-09-30T03:08:45;9.47;;;8.43;;
9124;SDS011;4597;48.730;9.114;2022-09-30T03:11:30;11.43;;;8.30;;
9124;SDS011;4597;48.730;9.114;2022-09-30T03:27:50;9.37;;;8.10;;
9124;SDS011;4597;48.730;9.114;2022-09-30T03:30:32;9.27;;;7.43;;
9124;SDS011;4597;48.730;9.114;2022-09-30T03:35:36;8.70;;;7.37;;
9124;SDS011;4597;48.730;9.114;2022-09-30T03:41:03;10.77;;;7.40;;
9124;SDS011;4597;48.730;9.114;2022-09-30T03:43:50;9.23;;;7.40;;
9124;SDS011;4597;48.730;9.114;2022-09-30T03:46:32;8.93;;;7.33;;
9124;SDS011;4597;48.730;9.114;2022-09-30T03:49:02;8.70;;;7.47;;
9124;SDS011;4597;48.730;9.114;2022-09-30T03:51:34;9.97;;;7.57;;
9124;SDS011;4597;48.730;9.114;2022-09-30T03:54:05;8.47;;;7.60;;
9124;SDS011;4597;48.730;9.114;2022-09-30T03:56:35;8.33;;;7.20;;
9124;SDS011;4597;48.730;9.114;2022-09-30T03:59:01;14.63;;;7.70;;
9124;SDS011;4597;48.730;9.114;2022-09-30T04:01:27;9.17;;;7.27;;
9124;SDS011;4597;48.730;9.114;2022-09-30T04:03:53;8.53;;;7.43;;
9124;SDS011;4597;48.730;9.114;2022-09-30T04:06:20;8.60;;;7.33;;
9124;SDS011;4597;48.730;9.114;2022-09-30T04:08:47;10.67;;;7.63;;
9124;SDS011;4597;48.730;9.114;2022-09-30T04:11:13;10.87;;;7.23;;
9124;SDS011;4597;48.730;9.114;2022-09-30T04:13:39;10.10;;;7.10;;
9124;SDS011;4597;48.730;9.114;2022-09-30T04:16:05;8.77;;;7.27;;
9124;SDS011;4597;48.730;9.114;2022-09-30T04:18:32;9.47;;;7.87;;
9124;SDS011;4597;48.730;9.114;2022-09-30T04:21:03;9.97;;;8.13;;
9124;SDS011;4597;48.730;9.114;2022-09-30T04:23:32;8.70;;;7.40;;
9124;SDS011;4597;48.730;9.114;2022-09-30T04:25:58;8.10;;;7.10;;
9124;SDS011;4597;48.730;9.114;2022-09-30T04:28:24;10.63;;;7.37;;
9124;SDS011;4597;48.730;9.114;2022-09-30T04:30:50;11.07;;;8.07;;
9124;SDS011;4597;48.730;9.114;2022-09-30T04:33:16;8.50;;;7.33;;
9124;SDS011;4597;48.730;9.114;2022-09-30T04:35:41;9.57;;;7.10;;
9124;SDS011;4597;48.730;9.114;2022-09-30T04:38:07;10.97;;;7.90;;
9124;SDS011;4597;48.730;9.114;2022-09-30T04:40:36;8.77;;;7.33;;
9124;SDS011;4597;48.730;9.114;2022-09-30T04:43:02;10.97;;;7.73;;
9124;SDS011;4597;48.730;9.114;2022-09-30T04:45:29;10.77;;;7.73;;
9124;SDS011;4597;48.730;9.114;2022-09-30T04:47:54;9.50;;;7.87;;
9124;SDS011;4597;48.730;9.114;2022-09-30T04:50:20;10.23;;;7.87;;
9124;SDS011;4597;48.730;9.114;2022-09-30T04:52:46;7.60;;;6.90;;
9124;SDS011;4597;48.730;9.114;2022-09-30T04:55:11;10.00;;;7.57;;
9124;SDS011;4597;48.730;9.114;2022-09-30T04:57:37;10.90;;;8.17;;
9124;SDS011;4597;48.730;9.114;2022-09-30T05:00:03;8.93;;;7.17;;
9124;SDS011;4597;48.730;9.114;2022-09-30T05:02:30;11.93;;;8.57;;
9124;SDS011;4597;48.730;9.114;2022-09-30T05:04:55;12.13;;;8.47;;
9124;SDS011;4597;48.730;9.114;2022-09-30T05:07:21;13.17;;;8.70;;
9124;SDS011;4597;48.730;9.114;2022-09-30T05:09:47;8.50;;;7.57;;
9124;SDS011;4597;48.730;9.114;2022-09-30T05:12:12;10.13;;;7.33;;
9124;SDS011;4597;48.730;9.114;2022-09-30T05:14:39;10.30;;;7.40;;
9124;SDS011;4597;48.730;9.114;2022-09-30T05:17:05;7.67;;;6.93;;
9124;SDS011;4597;48.730;9.114;2022-09-30T05:19:30;7.23;;;6.53;;
9124;SDS011;4597;48.730;9.114;2022-09-30T05:21:56;8.27;;;6.63;;
9124;SDS011;4597;48.730;9.114;2022-09-30T05:24:22;8.97;;;6.50;;
9124;SDS011;4597;48.730;9.114;2022-09-30T05:26:47;11.07;;;6.87;;
9124;SDS011;4597;48.730;9.114;2022-09-30T05:29:13;10.93;;;7.60;;
9124;SDS011;4597;48.730;9.114;2022-09-30T05:31:38;10.07;;;8.13;;
9124;SDS011;4597;48.730;9.114;2022-09-30T05:34:06;11.40;;;9.30;;
9124;SDS011;4597;48.730;9.114;2022-09-30T05:36:31;14.73;;;11.07;;
9124;SDS011;4597;48.730;9.114;2022-09-30T05:38:57;15.33;;;11.80;;
9124;SDS011;4597;48.730;9.114;2022-09-30T05:41:22;16.87;;;11.90;;
9124;SDS011;4597;48.730;9.114;2022-09-30T05:43:48;17.20;;;12.17;;
9124;SDS011;4597;48.730;9.114;2022-09-30T05:46:14;22.73;;;14.37;;
9124;SDS011;4597;48.730;9.114;2022-09-30T05:48:41;19.33;;;14.03;;
9124;SDS011;4597;48.730;9.114;2022-09-30T05:51:07;20.30;;;12.60;;
9124;SDS011;4597;48.730;9.114;2022-09-30T05:53:33;20.17;;;12.97;;
9124;SDS011;4597;48.730;9.114;2022-09-30T05:56:06;16.67;;;11.07;;
9124;SDS011;4597;48.730;9.114;2022-09-30T05:58:33;12.80;;;10.23;;
9124;SDS011;4597;48.730;9.114;2022-09-30T06:01:07;12.00;;;9.77;;
9124;SDS011;4597;48.730;9.114;2022-09-30T06:03:35;16.13;;;11.97;;
9124;SDS011;4597;48.730;9.114;2022-09-30T06:06:02;15.00;;;10.43;;
9124;SDS011;4597;48.730;9.114;2022-09-30T06:08:28;15.77;;;11.50;;
9124;SDS011;4597;48.730;9.114;2022-09-30T06:10:54;16.50;;;12.00;;
9124;SDS011;4597;48.730;9.114;2022-09-30T06:13:22;13.20;;;10.83;;
9124;SDS011;4597;48.730;9.114;2022-09-30T06:15:58;16.60;;;11.77;;
9124;SDS011;4597;48.730;9.114;2022-09-30T06:18:26;17.37;;;11.97;;
9124;SDS011;4597;48.730;9.114;2022-09-30T06:20:56;16.57;;;12.47;;
9124;SDS011;4597;48.730;9.114;2022-09-30T06:23:23;16.53;;;12.60;;
9124;SDS011;4597;48.730;9.114;2022-09-30T06:25:50;18.47;;;12.97;;
9124;SDS011;4597;48.730;9.114;2022-09-30T06:28:17;19.60;;;12.73;;
9124;SDS011;4597;48.730;9.114;2022-09-30T06:30:43;19.40;;;12.33;;
9124;SDS011;4597;48.730;9.114;2022-09-30T06:33:10;19.23;;;13.03;;
9124;SDS011;4597;48.730;9.114;2022-09-30T06:35:37;18.80;;;13.67;;
9124;SDS011;4597;48.730;9.114;2022-09-30T06:38:05;21.47;;;13.40;;
9124;SDS011;4597;48.730;9.114;2022-09-30T06:40:30;18.17;;;12.73;;
9124;SDS011;4597;48.730;9.114;2022-09-30T06:42:59;15.70;;;11.47;;
9124;SDS011;4597;48.730;9.114;2022-09-30T06:45:26;16.53;;;12.40;;
9124;SDS011;4597;48.730;9.114;2022-09-30T06:47:56;16.77;;;11.67;;
9124;SDS011;4597;48.730;9.114;2022-09-30T06:50:22;16.07;;;11.67;;
9124;SDS011;4597;48.730;9.114;2022-09-30T06:52:48;15.97;;;11.60;;
9124;SDS011;4597;48.730;9.114;2022-09-30T06:55:13;16.63;;;12.63;;
9124;SDS011;4597;48.730;9.114;2022-09-30T06:57:39;15.93;;;12.07;;
9124;SDS011;4597;48.730;9.114;2022-09-30T07:00:05;14.37;;;11.30;;
9124;SDS011;4597;48.730;9.114;2022-09-30T07:02:31;12.30;;;10.40;;
9124;SDS011;4597;48.730;9.114;2022-09-30T07:04:58;13.13;;;9.90;;
9124;SDS011;4597;48.730;9.114;2022-09-30T07:07:24;14.10;;;11.13;;
9124;SDS011;4597;48.730;9.114;2022-09-30T07:09:49;15.10;;;10.93;;
9124;SDS011;4597;48.730;9.114;2022-09-30T07:12:15;14.13;;;10.77;;
9124;SDS011;4597;48.730;9.114;2022-09-30T07:14:41;17.50;;;10.93;;
9124;SDS011;4597;48.730;9.114;2022-09-30T07:17:07;14.33;;;11.40;;
9124;SDS011;4597;48.730;9.114;2022-09-30T07:19:32;11.73;;;10.07;;
9124;SDS011;4597;48.730;9.114;2022-09-30T07:21:59;12.47;;;10.40;;
9124;SDS011;4597;48.730;9.114;2022-09-30T07:24:44;14.53;;;11.43;;
9124;SDS011;4597;48.730;9.114;2022-09-30T07:27:10;14.93;;;11.50;;
9124;SDS011;4597;48.730;9.114;2022-09-30T07:29:37;13.87;;;11.27;;
9124;SDS011;4597;48.730;9.114;2022-09-30T07:32:04;17.47;;;12.27;;
9124;SDS011;4597;48.730;9.114;2022-09-30T07:34:30;14.00;;;11.90;;
9124;SDS011;4597;48.730;9.114;2022-09-30T07:36:56;13.10;;;11.40;;
9124;SDS011;4597;48.730;9.114;2022-09-30T07:39:21;13.30;;;11.63;;
9124;SDS011;4597;48.730;9.114;2022-09-30T07:41:47;15.73;;;11.00;;
9124;SDS011;4597;48.730;9.114;2022-09-30T07:44:13;13.73;;;11.33;;
9124;SDS011;4597;48.730;9.114;2022-09-30T07:46:39;18.47;;;12.33;;
9124;SDS011;4597;48.730;9.114;2022-09-30T07:49:06;16.77;;;12.10;;
9124;SDS011;4597;48.730;9.114;2022-09-30T07:51:38;14.80;;;11.23;;
9124;SDS011;4597;48.730;9.114;2022-09-30T07:54:06;14.40;;;11.40;;
9124;SDS011;4597;48.730;9.114;2022-09-30T07:56:35;12.37;;;11.07;;
9124;SDS011;4597;48.730;9.114;2022-09-30T07:59:02;12.70;;;11.20;;
9124;SDS011;4597;48.730;9.114;2022-09-30T08:01:29;16.33;;;11.70;;
9124;SDS011;4597;48.730;9.114;2022-09-30T08:04:00;14.20;;;11.70;;
9124;SDS011;4597;48.730;9.114;2022-09-30T08:06:27;13.70;;;11.50;;
9124;SDS011;4597;48.730;9.114;2022-09-30T08:08:55;14.00;;;11.10;;
9124;SDS011;4597;48.730;9.114;2022-09-30T08:11:22;16.43;;;12.53;;
9124;SDS011;4597;48.730;9.114;2022-09-30T08:13:51;15.03;;;11.50;;
9124;SDS011;4597;48.730;9.114;2022-09-30T08:16:18;12.23;;;10.83;;
9124;SDS011;4597;48.730;9.114;2022-09-30T08:18:45;12.77;;;9.83;;
9124;SDS011;4597;48.730;9.114;2022-09-30T08:21:11;12.83;;;10.63;;
9124;SDS011;4597;48.730;9.114;2022-09-30T08:23:36;11.27;;;9.70;;
9124;SDS011;4597;48.730;9.114;2022-09-30T08:26:02;11.60;;;9.57;;
9124;SDS011;4597;48.730;9.114;2022-09-30T08:28:30;10.33;;;8.70;;
9124;SDS011;4597;48.730;9.114;2022-09-30T08:31:03;10.53;;;9.53;;
9124;SDS011;4597;48.730;9.114;2022-09-30T08:33:30;11.23;;;9.53;;
9124;SDS011;4597;48.730;9.114;2022-09-30T08:35:56;11.83;;;9.43;;
9124;SDS011;4597;48.730;9.114;2022-09-30T08:38:25;11.77;;;9.27;;
9124;SDS011;4597;48.730;9.114;2022-09-30T08:43:50;14.07;;;11.00;;
9124;SDS011;4597;48.730;9.114;2022-09-30T08:52:37;11.00;;;9.60;;
9124;SDS011;4597;48.730;9.114;2022-09-30T08:55:04;10.33;;;9.23;;
9124;SDS011;4597;48.730;9.114;2022-09-30T08:57:33;10.97;;;9.33;;
9124;SDS011;4597;48.730;9.114;2022-09-30T09:00:03;9.40;;;8.40;;
9124;SDS011;4597;48.730;9.114;2022-09-30T09:02:52;10.77;;;9.77;;
9124;SDS011;4597;48.730;9.114;2022-09-30T09:05:27;12.27;;;9.90;;
9124;SDS011;4597;48.730;9.114;2022-09-30T09:08:03;10.93;;;9.93;;
9124;SDS011;4597;48.730;9.114;2022-09-30T09:10:42;12.50;;;10.30;;
9124;SDS011;4597;48.730;9.114;2022-09-30T09:13:18;11.10;;;9.30;;
9124;SDS011;4597;48.730;9.114;2022-09-30T09:16:14;10.20;;;9.23;;
9124;SDS011;4597;48.730;9.114;2022-09-30T09:19:02;11.17;;;10.07;;
9124;SDS011;4597;48.730;9.114;2022-09-30T09:24:25;10.23;;;9.23;;
9124;SDS011;4597;48.730;9.114;2022-09-30T09:26:52;12.60;;;10.13;;
9124;SDS011;4597;48.730;9.114;2022-09-30T09:32:19;11.60;;;10.40;;
9124;SDS011;4597;48.730;9.114;2022-09-30T09:34:49;12.07;;;10.83;;
9124;SDS011;4597;48.730;9.114;2022-09-30T09:40:33;11.60;;;10.40;;
9124;SDS011;4597;48.730;9.114;2022-09-30T09:48:42;13.37;;;12.03;;
9124;SDS011;4597;48.730;9.114;2022-09-30T09:51:14;13.80;;;11.93;;
9124;SDS011;4597;48.730;9.114;2022-09-30T09:53:59;12.70;;;11.33;;
9124;SDS011;4597;48.730;9.114;2022-09-30T09:56:27;13.03;;;10.93;;
9124;SDS011;4597;48.730;9.114;2022-09-30T09:59:07;13.93;;;11.20;;
9124;SDS011;4597;48.730;9.114;2022-09-30T10:01:37;12.13;;;10.87;;
9124;SDS011;4597;48.730;9.114;2022-09-30T10:04:16;12.10;;;10.50;;
9124;SDS011;4597;48.730;9.114;2022-09-30T10:06:52;11.97;;;10.77;;
9124;SDS011;4597;48.730;9.114;2022-09-30T10:09:30;12.13;;;10.27;;
9124;SDS011;4597;48.730;9.114;2022-09-30T10:16:59;9.67;;;7.70;;
9124;SDS011;4597;48.730;9.114;2022-09-30T10:19:29;9.47;;;8.40;;
9124;SDS011;4597;48.730;9.114;2022-09-30T10:22:19;10.30;;;9.30;;
9124;SDS011;4597;48.730;9.114;2022-09-30T10:24:50;11.37;;;10.00;;
9124;SDS011;4597;48.730;9.114;2022-09-30T10:29:55;11.33;;;10.23;;
9124;SDS011;4597;48.730;9.114;2022-09-30T10:32:21;8.80;;;7.83;;
9124;SDS011;4597;48.730;9.114;2022-09-30T10:34:53;5.07;;;4.60;;
9124;SDS011;4597;48.730;9.114;2022-09-30T10:37:22;6.40;;;4.17;;
9124;SDS011;4597;48.730;9.114;2022-09-30T10:39:56;6.60;;;5.40;;
9124;SDS011;4597;48.730;9.114;2022-09-30T10:42:26;5.87;;;5.37;;
9124;SDS011;4597;48.730;9.114;2022-09-30T10:47:51;6.57;;;5.90;;
9124;SDS011;4597;48.730;9.114;2022-09-30T10:50:19;7.70;;;6.40;;
9124;SDS011;4597;48.730;9.114;2022-09-30T10:53:02;5.70;;;5.20;;
9124;SDS011;4597;48.730;9.114;2022-09-30T10:55:42;6.40;;;5.90;;
9124;SDS011;4597;48.730;9.114;2022-09-30T11:01:23;5.17;;;4.67;;
9124;SDS011;4597;48.730;9.114;2022-09-30T11:03:59;5.43;;;4.93;;
9124;SDS011;4597;48.730;9.114;2022-09-30T11:06:36;7.27;;;5.07;;
9124;SDS011;4597;48.730;9.114;2022-09-30T11:09:21;4.87;;;4.37;;
9124;SDS011;4597;48.730;9.114;2022-09-30T11:12:02;5.20;;;4.70;;
9124;SDS011;4597;48.730;9.114;2022-09-30T11:14:37;6.50;;;5.30;;
9124;SDS011;4597;48.730;9.114;2022-09-30T11:17:18;5.47;;;4.90;;
9124;SDS011;4597;48.730;9.114;2022-09-30T11:20:20;4.43;;;4.03;;
9124;SDS011;4597;48.730;9.114;2022-09-30T11:22:59;6.03;;;4.77;;
9124;SDS011;4597;48.730;9.114;2022-09-30T11:25:42;4.40;;;4.10;;
9124;SDS011;4597;48.730;9.114;2022-09-30T11:36:33;4.20;;;3.83;;
9124;SDS011;4597;48.730;9.114;2022-09-30T11:39:00;4.40;;;4.10;;
9124;SDS011;4597;48.730;9.114;2022-09-30T11:41:30;5.50;;;4.40;;
9124;SDS011;4597;48.730;9.114;2022-09-30T11:52:17;3.90;;;3.50;;
9124;SDS011;4597;48.730;9.114;2022-09-30T11:55:04;4.77;;;3.80;;
9124;SDS011;4597;48.730;9.114;2022-09-30T11:58:04;4.83;;;4.37;;
9124;SDS011;4597;48.730;9.114;2022-09-30T12:00:35;5.47;;;4.17;;
9124;SDS011;4597;48.730;9.114;2022-09-30T12:03:12;4.30;;;4.00;;
9124;SDS011;4597;48.730;9.114;2022-09-30T12:05:47;4.70;;;4.20;;
9124;SDS011;4597;48.730;9.114;2022-09-30T12:08:20;4.63;;;4.20;;
9124;SDS011;4597;48.730;9.114;2022-09-30T12:10:51;4.10;;;3.80;;
9124;SDS011;4597;48.730;9.114;2022-09-30T12:13:34;7.27;;;5.27;;
9124;SDS011;4597;48.730;9.114;2022-09-30T12:16:05;5.67;;;5.10;;
9124;SDS011;4597;48.730;9.114;2022-09-30T12:18:36;5.37;;;4.87;;
9124;SDS011;4597;48.730;9.114;2022-09-30T12:21:17;8.83;;;5.37;;
9124;SDS011;4597;48.730;9.114;2022-09-30T12:23:48;6.37;;;5.73;;
9124;SDS011;4597;48.730;9.114;2022-09-30T12:26:22;7.87;;;5.00;;
9124;SDS011;4597;48.730;9.114;2022-09-30T12:28:50;7.10;;;5.00;;
9124;SDS011;4597;48.730;9.114;2022-09-30T12:31:53;5.77;;;5.30;;
9124;SDS011;4597;48.730;9.114;2022-09-30T12:34:43;5.77;;;5.23;;
9124;SDS011;4597;48.730;9.114;2022-09-30T12:51:19;4.73;;;4.23;;
9124;SDS011;4597;48.730;9.114;2022-09-30T12:53:49;5.07;;;4.50;;
9124;SDS011;4597;48.730;9.114;2022-09-30T12:56:19;5.27;;;4.70;;
9124;SDS011;4597;48.730;9.114;2022-09-30T12:58:51;5.50;;;4.50;;
9124;SDS011;4597;48.730;9.114;2022-09-30T13:01:21;4.80;;;4.33;;
9124;SDS011;4597;48.730;9.114;2022-09-30T13:06:23;5.07;;;4.57;;
9124;SDS011;4597;48.730;9.114;2022-09-30T13:11:33;8.70;;;4.70;;
9124;SDS011;4597;48.730;9.114;2022-09-30T13:14:23;5.90;;;4.97;;
9124;SDS011;4597;48.730;9.114;2022-09-30T13:27:38;5.03;;;4.07;;
9124;SDS011;4597;48.730;9.114;2022-09-30T13:35:29;5.93;;;4.40;;
9124;SDS011;4597;48.730;9.114;2022-09-30T13:38:41;5.30;;;4.77;;
9124;SDS011;4597;48.730;9.114;2022-09-30T13:40:45;4.90;;;4.40;;
9124;SDS011;4597;48.730;9.114;2022-09-30T13:43:24;4.80;;;4.40;;
9124;SDS011;4597;48.730;9.114;2022-09-30T13:45:55;6.40;;;4.47;;
9124;SDS011;4597;48.730;9.114;2022-09-30T13:48:32;5.17;;;4.40;;
9124;SDS011;4597;48.730;9.114;2022-09-30T13:51:02;4.93;;;4.50;;
9124;SDS011;4597;48.730;9.114;2022-09-30T13:53:37;4.83;;;4.47;;
9124;SDS011;4597;48.730;9.114;2022-09-30T13:56:08;4.90;;;4.10;;
9124;SDS011;4597;48.730;9.114;2022-09-30T14:01:44;6.43;;;4.30;;
9124;SDS011;4597;48.730;9.114;2022-09-30T14:07:27;4.43;;;3.83;;
9124;SDS011;4597;48.730;9.114;2022-09-30T14:12:48;4.87;;;4.00;;
9124;SDS011;4597;48.730;9.114;2022-09-30T14:21:12;4.33;;;4.03;;
9124;SDS011;4597;48.730;9.114;2022-09-30T14:24:10;5.53;;;4.10;;
9124;SDS011;4597;48.730;9.114;2022-09-30T14:27:03;5.87;;;3.97;;
9124;SDS011;4597;48.730;9.114;2022-09-30T14:32:26;5.23;;;3.40;;
9124;SDS011;4597;48.730;9.114;2022-09-30T14:34:54;3.63;;;3.30;;
9124;SDS011;4597;48.730;9.114;2022-09-30T14:37:33;3.77;;;3.47;;
9124;SDS011;4597;48.730;9.114;2022-09-30T14:40:09;4.27;;;3.87;;
9124;SDS011;4597;48.730;9.114;2022-09-30T14:42:39;3.83;;;3.43;;
9124;SDS011;4597;48.730;9.114;2022-09-30T14:45:06;4.07;;;3.70;;
9124;SDS011;4597;48.730;9.114;2022-09-30T14:47:37;4.20;;;3.80;;
9124;SDS011;4597;48.730;9.114;2022-09-30T14:50:18;3.47;;;3.00;;
9124;SDS011;4597;48.730;9.114;2022-09-30T14:52:47;4.10;;;3.70;;
9124;SDS011;4597;48.730;9.114;2022-09-30T14:55:24;3.63;;;3.33;;
9124;SDS011;4597;48.730;9.114;2022-09-30T14:58:11;3.58;;;3.28;;
9124;SDS011;4597;48.730;9.114;2022-09-30T15:01:04;4.30;;;3.42;;
9124;SDS011;4597;48.730;9.114;2022-09-30T15:03:31;3.63;;;3.33;;
9124;SDS011;4597;48.730;9.114;2022-09-30T15:06:04;3.50;;;3.20;;
9124;SDS011;4597;48.730;9.114;2022-09-30T15:08:41;4.00;;;3.60;;
9124;SDS011;4597;48.730;9.114;2022-09-30T15:11:07;3.40;;;3.20;;
9124;SDS011;4597;48.730;9.114;2022-09-30T15:13:33;3.30;;;3.00;;
9124;SDS011;4597;48.730;9.114;2022-09-30T15:16:01;3.47;;;3.13;;
9124;SDS011;4597;48.730;9.114;2022-09-30T15:21:11;4.15;;;3.20;;
9124;SDS011;4597;48.730;9.114;2022-09-30T15:23:40;3.30;;;3.10;;
9124;SDS011;4597;48.730;9.114;2022-09-30T15:26:09;3.30;;;3.03;;
9124;SDS011;4597;48.730;9.114;2022-09-30T15:28:36;2.90;;;2.70;;
9124;SDS011;4597;48.730;9.114;2022-09-30T15:31:03;3.20;;;2.80;;
9124;SDS011;4597;48.730;9.114;2022-09-30T15:33:30;3.92;;;3.10;;
9124;SDS011;4597;48.730;9.114;2022-09-30T15:36:39;4.30;;;3.00;;
9124;SDS011;4597;48.730;9.114;2022-09-30T15:38:48;3.30;;;3.05;;
9124;SDS011;4597;48.730;9.114;2022-09-30T15:41:15;4.82;;;3.40;;
9124;SDS011;4597;48.730;9.114;2022-09-30T15:43:48;3.05;;;2.85;;
9124;SDS011;4597;48.730;9.114;2022-09-30T15:46:21;3.40;;;3.20;;
9124;SDS011;4597;48.730;9.114;2022-09-30T15:48:49;5.18;;;3.22;;
9124;SDS011;4597;48.730;9.114;2022-09-30T15:51:22;3.75;;;3.20;;
9124;SDS011;4597;48.730;9.114;2022-09-30T15:53:54;3.17;;;2.85;;
9124;SDS011;4597;48.730;9.114;2022-09-30T15:56:36;3.85;;;3.10;;
9124;SDS011;4597;48.730;9.114;2022-09-30T16:01:44;5.80;;;3.15;;
9124;SDS011;4597;48.730;9.114;2022-09-30T16:06:54;2.67;;;2.47;;
9124;SDS011;4597;48.730;9.114;2022-09-30T16:09:31;4.43;;;2.63;;
9124;SDS011;4597;48.730;9.114;2022-09-30T16:17:23;3.65;;;3.35;;
9124;SDS011;4597;48.730;9.114;2022-09-30T16:19:55;2.42;;;2.33;;
9124;SDS011;4597;48.730;9.114;2022-09-30T16:27:34;2.85;;;2.42;;
9124;SDS011;4597;48.730;9.114;2022-09-30T16:30:01;2.87;;;2.40;;
9124;SDS011;4597;48.730;9.114;2022-09-30T16:32:29;2.83;;;2.47;;
9124;SDS011;4597;48.730;9.114;2022-09-30T16:34:57;2.87;;;2.67;;
9124;SDS011;4597;48.730;9.114;2022-09-30T16:37:23;2.83;;;2.63;;
9124;SDS011;4597;48.730;9.114;2022-09-30T16:39:49;2.93;;;2.70;;
9124;SDS011;4597;48.730;9.114;2022-09-30T16:42:15;3.10;;;2.77;;
9124;SDS011;4597;48.730;9.114;2022-09-30T16:44:41;4.30;;;2.63;;
9124;SDS011;4597;48.730;9.114;2022-09-30T16:47:11;2.67;;;2.47;;
9124;SDS011;4597;48.730;9.114;2022-09-30T16:49:41;4.03;;;2.57;;
9124;SDS011;4597;48.730;9.114;2022-09-30T16:52:08;4.47;;;3.07;;
9124;SDS011;4597;48.730;9.114;2022-09-30T16:54:35;3.90;;;3.53;;
9124;SDS011;4597;48.730;9.114;2022-09-30T16:57:00;5.53;;;4.60;;
9124;SDS011;4597;48.730;9.114;2022-09-30T16:59:26;4.00;;;3.60;;
9124;SDS011;4597;48.730;9.114;2022-09-30T17:01:52;3.07;;;2.77;;
9124;SDS011;4597;48.730;9.114;2022-09-30T17:04:17;2.90;;;2.60;;
9124;SDS011;4597;48.730;9.114;2022-09-30T17:06:43;5.87;;;2.90;;
9124;SDS011;4597;48.730;9.114;2022-09-30T17:09:09;4.97;;;2.87;;
9124;SDS011;4597;48.730;9.114;2022-09-30T17:11:34;4.43;;;2.93;;
9124;SDS011;4597;48.730;9.114;2022-09-30T17:14:02;3.83;;;3.10;;
9124;SDS011;4597;48.730;9.114;2022-09-30T17:16:29;3.63;;;3.33;;
9124;SDS011;4597;48.730;9.114;2022-09-30T17:18:54;4.23;;;3.43;;
9124;SDS011;4597;48.730;9.114;2022-09-30T17:21:21;5.47;;;3.50;;
9124;SDS011;4597;48.730;9.114;2022-09-30T17:23:48;6.33;;;4.33;;
9124;SDS011;4597;48.730;9.114;2022-09-30T17:26:14;4.93;;;4.50;;
9124;SDS011;4597;48.730;9.114;2022-09-30T17:28:39;5.50;;;4.13;;
9124;SDS011;4597;48.730;9.114;2022-09-30T17:31:06;4.23;;;3.87;;
9124;SDS011;4597;48.730;9.114;2022-09-30T17:33:33;6.00;;;3.40;;
9124;SDS011;4597;48.730;9.114;2022-09-30T17:36:02;4.00;;;3.70;;
9124;SDS011;4597;48.730;9.114;2022-09-30T17:38:33;4.20;;;3.80;;
9124;SDS011;4597;48.730;9.114;2022-09-30T17:40:59;4.10;;;3.80;;
9124;SDS011;4597;48.730;9.114;2022-09-30T17:43:44;6.90;;;3.83;;
9124;SDS011;4597;48.730;9.114;2022-09-30T17:46:10;4.80;;;4.40;;
9124;SDS011;4597;48.730;9.114;2022-09-30T17:48:36;6.00;;;3.90;;
9124;SDS011;4597;48.730;9.114;2022-09-30T17:51:03;4.33;;;3.93;;
9124;SDS011;4597;48.730;9.114;2022-09-30T17:53:30;5.30;;;4.80;;
9124;SDS011;4597;48.730;9.114;2022-09-30T17:56:03;5.83;;;3.93;;
9124;SDS011;4597;48.730;9.114;2022-09-30T17:58:36;4.97;;;4.57;;
9124;SDS011;4597;48.730;9.114;2022-09-30T18:01:06;5.80;;;4.90;;
9124;SDS011;4597;48.730;9.114;2022-09-30T18:03:33;7.30;;;5.20;;
9124;SDS011;4597;48.730;9.114;2022-09-30T18:05:59;5.97;;;4.90;;
9124;SDS011;4597;48.730;9.114;2022-09-30T18:08:25;8.77;;;6.00;;
9124;SDS011;4597;48.730;9.114;2022-09-30T18:10:52;8.43;;;6.47;;
9124;SDS011;4597;48.730;9.114;2022-09-30T18:13:18;6.53;;;5.93;;
9124;SDS011;4597;48.730;9.114;2022-09-30T18:15:44;6.73;;;6.00;;
9124;SDS011;4597;48.730;9.114;2022-09-30T18:18:10;6.30;;;5.30;;
9124;SDS011;4597;48.730;9.114;2022-09-30T18:20:40;6.50;;;5.43;;
9124;SDS011;4597;48.730;9.114;2022-09-30T18:23:07;6.73;;;6.13;;